createdAt,value
2022-10-31T00:07:08.391Z,7.84
2022-10-31T00:09:49.276Z,8.03
2022-10-31T00:14:59.950Z,8.09
2022-10-31T00:17:28.980Z,7.98
2022-10-31T00:19:57.943Z,7.98
2022-10-31T00:22:26.454Z,8.03
2022-10-31T00:24:54.218Z,8.06
2022-10-31T00:27:22.078Z,8.03
2022-10-31T00:29:50.907Z,8.17
2022-10-31T00:32:19.613Z,8.24
2022-10-31T00:34:47.448Z,8.27
2022-10-31T00:37:15.267Z,8.15
2022-10-31T00:39:46.338Z,8.25
2022-10-31T00:42:14.275Z,8.32
2022-10-31T00:44:44.215Z,8.05
2022-10-31T00:47:12.133Z,7.90
2022-10-31T00:49:40.012Z,8.02
2022-10-31T00:52:08.868Z,8.02
2022-10-31T00:54:36.821Z,8.03
2022-10-31T00:57:04.966Z,8.06
2022-10-31T00:59:32.811Z,7.54
2022-10-31T01:02:01.517Z,7.41
2022-10-31T01:04:29.519Z,7.66
2022-10-31T01:06:58.603Z,7.66
2022-10-31T01:09:26.606Z,7.65
2022-10-31T01:11:54.462Z,7.59
2022-10-31T01:14:24.567Z,7.66
2022-10-31T01:16:52.503Z,7.75
2022-10-31T01:19:21.105Z,7.77
2022-10-31T01:21:48.894Z,7.17
2022-10-31T01:24:16.871Z,7.30
2022-10-31T01:26:44.742Z,7.49
2022-10-31T01:29:12.605Z,7.41
2022-10-31T01:31:41.626Z,7.33
2022-10-31T01:34:14.743Z,7.50
2022-10-31T01:36:43.616Z,7.60
2022-10-31T01:39:14.609Z,7.13
2022-10-31T01:41:46.856Z,7.24
2022-10-31T01:44:14.721Z,7.24
2022-10-31T01:46:59.225Z,7.29
2022-10-31T01:49:58.034Z,7.01
2022-10-31T01:52:50.175Z,7.10
2022-10-31T01:55:34.085Z,7.26
2022-10-31T01:58:10.921Z,7.46
2022-10-31T02:02:37.662Z,7.42
2022-10-31T02:05:10.922Z,7.55
2022-10-31T02:07:54.740Z,7.51
2022-10-31T02:10:28.835Z,7.59
2022-10-31T02:12:59.736Z,7.63
2022-10-31T02:15:29.785Z,7.53
2022-10-31T02:17:58.012Z,7.20
2022-10-31T02:20:34.137Z,7.46
2022-10-31T02:23:14.192Z,7.59
2022-10-31T02:26:10.842Z,7.55
2022-10-31T02:29:12.236Z,7.48
2022-10-31T02:32:15.508Z,7.47
2022-10-31T02:35:15.817Z,7.56
2022-10-31T02:37:57.876Z,7.49
2022-10-31T02:40:35.562Z,7.55
2022-10-31T02:43:54.631Z,7.49
2022-10-31T02:46:43.258Z,7.52
2022-10-31T02:49:49.947Z,7.65
2022-10-31T02:52:22.967Z,7.61
2022-10-31T02:54:51.996Z,7.88
2022-10-31T02:57:32.041Z,7.92
2022-10-31T03:00:05.759Z,7.90
2022-10-31T03:02:55.025Z,7.89
2022-10-31T03:05:44.873Z,7.71
2022-10-31T03:08:40.046Z,7.72
2022-10-31T03:11:09.609Z,7.59
2022-10-31T03:13:55.814Z,7.57
2022-10-31T03:16:49.754Z,7.58
2022-10-31T03:19:18.023Z,7.70
2022-10-31T03:21:57.262Z,7.76
2022-10-31T03:24:28.924Z,7.81
2022-10-31T03:27:00.825Z,7.92
2022-10-31T03:29:35.895Z,7.78
2022-10-31T03:32:11.043Z,7.77
2022-10-31T03:34:42.807Z,7.88
2022-10-31T03:37:15.719Z,7.96
2022-10-31T03:39:47.350Z,7.52
2022-10-31T03:42:31.343Z,7.72
2022-10-31T03:45:14.319Z,7.92
2022-10-31T03:47:44.944Z,8.02
2022-10-31T03:50:16.374Z,8.05
2022-10-31T03:52:59.589Z,7.73
2022-10-31T03:55:34.124Z,7.85
2022-10-31T03:58:09.077Z,7.89
2022-10-31T04:00:40.266Z,7.74
2022-10-31T04:03:20.397Z,7.57
2022-10-31T04:05:53.911Z,7.73
2022-10-31T04:08:29.256Z,7.75
2022-10-31T04:11:00.459Z,7.61
2022-10-31T04:13:31.739Z,7.57
2022-10-31T04:16:05.916Z,7.70
2022-10-31T04:18:34.672Z,7.79
2022-10-31T04:21:07.241Z,7.83
2022-10-31T04:23:37.200Z,7.98
2022-10-31T04:26:26.875Z,8.05
2022-10-31T04:28:55.473Z,7.96
2022-10-31T04:31:23.620Z,8.11
2022-10-31T04:33:51.740Z,8.03
2022-10-31T04:36:19.977Z,8.00
2022-10-31T04:38:49.154Z,7.96
2022-10-31T04:41:34.610Z,8.04
2022-10-31T04:44:05.592Z,8.03
2022-10-31T04:46:34.255Z,7.93
2022-10-31T04:49:02.928Z,7.95
2022-10-31T04:51:30.989Z,7.75
2022-10-31T04:53:59.124Z,7.83
2022-10-31T04:56:49.973Z,7.64
2022-10-31T04:59:22.753Z,7.51
2022-10-31T05:01:54.225Z,7.60
2022-10-31T05:04:29.628Z,7.36
2022-10-31T05:06:58.391Z,7.26
2022-10-31T05:09:27.086Z,7.37
2022-10-31T05:11:55.096Z,7.49
2022-10-31T05:14:49.024Z,7.33
2022-10-31T05:17:40.356Z,7.26
2022-10-31T05:20:32.074Z,7.42
2022-10-31T05:23:06.116Z,7.28
2022-10-31T05:25:34.571Z,7.32
2022-10-31T05:28:05.407Z,7.57
2022-10-31T05:30:35.017Z,7.48
2022-10-31T05:33:04.181Z,7.51
2022-10-31T05:35:51.232Z,7.71
2022-10-31T05:38:39.478Z,7.70
2022-10-31T05:41:13.589Z,7.58
2022-10-31T05:43:46.933Z,7.85
2022-10-31T05:46:16.193Z,7.75
2022-10-31T05:49:10.206Z,7.86
2022-10-31T05:51:56.019Z,8.00
2022-10-31T05:54:31.621Z,8.12
2022-10-31T05:56:59.944Z,7.89
2022-10-31T05:59:28.224Z,7.89
2022-10-31T06:01:57.237Z,8.08
2022-10-31T06:04:45.409Z,8.23
2022-10-31T06:07:13.637Z,8.12
2022-10-31T06:09:41.541Z,8.00
2022-10-31T06:12:09.695Z,8.12
2022-10-31T06:15:10.650Z,8.32
2022-10-31T06:17:38.680Z,8.44
2022-10-31T06:20:24.926Z,8.50
2022-10-31T06:23:04.958Z,8.46
2022-10-31T06:25:35.014Z,8.61
2022-10-31T06:28:08.334Z,8.67
2022-10-31T06:31:04.632Z,8.77
2022-10-31T06:33:32.840Z,8.75
2022-10-31T06:36:03.655Z,8.82
2022-10-31T06:38:32.464Z,8.93
2022-10-31T06:41:05.440Z,9.14
2022-10-31T06:43:42.707Z,9.10
2022-10-31T06:46:25.697Z,9.06
2022-10-31T06:49:17.057Z,9.33
2022-10-31T06:51:55.000Z,9.55
2022-10-31T06:54:23.329Z,9.23
2022-10-31T06:56:51.369Z,9.18
2022-10-31T06:59:19.345Z,9.32
2022-10-31T07:02:19.741Z,9.67
2022-10-31T07:04:49.798Z,9.79
2022-10-31T07:07:22.411Z,10.06
2022-10-31T07:09:51.917Z,10.00
2022-10-31T07:12:25.018Z,10.12
2022-10-31T07:14:59.693Z,11.18
2022-10-31T07:17:30.002Z,11.94
2022-10-31T07:20:01.498Z,12.14
2022-10-31T07:22:37.266Z,12.10
2022-10-31T07:25:08.095Z,11.75
2022-10-31T07:27:55.678Z,11.64
2022-10-31T07:30:24.254Z,11.89
2022-10-31T07:32:56.643Z,11.73
2022-10-31T07:35:29.374Z,11.79
2022-10-31T07:37:59.609Z,12.19
2022-10-31T07:40:27.686Z,12.45
2022-10-31T07:42:55.605Z,13.12
2022-10-31T07:45:50.839Z,13.43
2022-10-31T07:48:56.992Z,13.96
2022-10-31T07:51:48.412Z,14.44
2022-10-31T07:54:22.140Z,14.90
2022-10-31T07:56:50.194Z,15.37
2022-10-31T07:59:18.189Z,15.44
2022-10-31T08:01:46.162Z,15.69
2022-10-31T08:04:34.416Z,15.93
2022-10-31T08:07:38.944Z,16.01
2022-10-31T08:10:09.570Z,15.93
2022-10-31T08:12:37.673Z,16.00
2022-10-31T08:15:09.513Z,16.44
2022-10-31T08:17:39.218Z,16.52
2022-10-31T08:20:08.953Z,16.86
2022-10-31T08:22:44.442Z,17.70
2022-10-31T08:25:12.837Z,18.05
2022-10-31T08:27:40.777Z,18.36
2022-10-31T08:30:16.872Z,18.77
2022-10-31T08:33:05.661Z,19.64
2022-10-31T08:35:58.736Z,20.15
2022-10-31T08:38:48.351Z,20.39
2022-10-31T08:41:17.813Z,20.61
2022-10-31T08:43:46.304Z,21.41
2022-10-31T08:46:14.381Z,22.01
2022-10-31T08:48:44.073Z,22.35
2022-10-31T08:51:12.278Z,22.47
2022-10-31T08:53:40.213Z,22.62
2022-10-31T08:56:28.648Z,23.10
2022-10-31T08:58:56.832Z,23.78
2022-10-31T09:01:48.056Z,23.83
2022-10-31T09:04:16.387Z,23.64
2022-10-31T09:07:07.859Z,23.97
2022-10-31T09:09:33.528Z,24.58
2022-10-31T09:12:01.430Z,25.06
2022-10-31T09:15:03.122Z,24.62
2022-10-31T09:17:37.921Z,24.50
2022-10-31T09:20:39.913Z,24.99
2022-10-31T09:23:20.935Z,26.72
2022-10-31T09:25:53.153Z,27.01
2022-10-31T09:28:35.042Z,27.15
2022-10-31T09:31:08.264Z,27.45
2022-10-31T09:33:55.739Z,26.82
2022-10-31T09:36:39.782Z,26.38
2022-10-31T09:39:11.509Z,26.33
2022-10-31T09:41:56.162Z,26.66
2022-10-31T09:44:48.835Z,26.99
2022-10-31T09:47:43.635Z,26.98
2022-10-31T09:50:41.020Z,27.41
2022-10-31T09:53:56.054Z,27.66
2022-10-31T09:56:26.921Z,27.06
2022-10-31T09:59:01.859Z,26.23
2022-10-31T10:01:33.629Z,25.31
2022-10-31T10:04:20.911Z,24.32
2022-10-31T10:07:18.240Z,23.92
2022-10-31T10:10:00.348Z,23.19
2022-10-31T10:13:15.839Z,23.02
2022-10-31T10:16:00.692Z,22.57
2022-10-31T10:19:07.621Z,22.32
2022-10-31T10:21:39.116Z,22.17
2022-10-31T10:24:24.508Z,22.03
2022-10-31T10:27:08.170Z,22.13
2022-10-31T10:29:48.802Z,22.17
2022-10-31T10:32:25.853Z,21.52
2022-10-31T10:35:00.933Z,21.29
2022-10-31T10:37:40.648Z,21.13
2022-10-31T10:40:19.780Z,20.74
2022-10-31T10:43:26.613Z,20.96
2022-10-31T10:46:32.648Z,21.16
2022-10-31T10:49:29.940Z,21.09
2022-10-31T10:52:39.595Z,20.98
2022-10-31T10:55:11.944Z,20.93
2022-10-31T10:58:04.601Z,21.00
2022-10-31T11:00:39.307Z,21.03
2022-10-31T11:03:08.217Z,21.00
2022-10-31T11:05:46.246Z,20.97
2022-10-31T11:08:29.421Z,20.89
2022-10-31T11:11:26.679Z,20.99
2022-10-31T11:14:16.444Z,20.72
2022-10-31T11:16:48.875Z,20.95
2022-10-31T11:19:21.269Z,20.88
2022-10-31T11:21:52.842Z,20.92
2022-10-31T11:24:26.529Z,21.00
2022-10-31T11:27:15.090Z,20.97
2022-10-31T11:29:43.869Z,21.20
2022-10-31T11:32:23.502Z,21.52
2022-10-31T11:34:59.387Z,21.70
2022-10-31T11:37:30.697Z,22.26
2022-10-31T11:40:03.201Z,22.99
2022-10-31T11:42:41.177Z,23.32
2022-10-31T11:45:19.443Z,23.16
2022-10-31T11:47:54.021Z,23.40
2022-10-31T11:50:29.311Z,23.40
2022-10-31T11:52:57.519Z,23.39
2022-10-31T11:55:37.924Z,23.54
2022-10-31T11:58:20.798Z,23.48
2022-10-31T12:00:55.500Z,23.62
2022-10-31T12:03:23.507Z,23.71
2022-10-31T12:06:05.396Z,23.84
2022-10-31T12:08:36.792Z,24.01
2022-10-31T12:11:28.273Z,24.22
2022-10-31T12:14:04.985Z,24.30
2022-10-31T12:16:58.478Z,24.27
2022-10-31T12:19:50.139Z,23.89
2022-10-31T12:22:53.989Z,23.76
2022-10-31T12:25:46.604Z,23.69
2022-10-31T12:28:41.597Z,23.55
2022-10-31T12:31:50.784Z,23.52
2022-10-31T12:34:36.915Z,23.30
2022-10-31T12:37:28.262Z,23.17
2022-10-31T12:40:21.444Z,22.98
2022-10-31T12:43:28.086Z,22.96
2022-10-31T12:45:57.353Z,22.91
2022-10-31T12:48:46.924Z,22.80
2022-10-31T12:51:23.643Z,22.77
2022-10-31T12:54:01.332Z,22.77
2022-10-31T12:56:45.572Z,22.83
2022-10-31T12:59:46.218Z,22.71
2022-10-31T13:02:55.361Z,22.88
2022-10-31T13:05:38.856Z,22.78
2022-10-31T13:08:15.811Z,22.36
2022-10-31T13:10:46.734Z,22.55
2022-10-31T13:13:27.514Z,22.82
2022-10-31T13:16:02.129Z,23.22
2022-10-31T13:18:46.425Z,23.50
2022-10-31T13:21:24.841Z,23.58
2022-10-31T13:23:53.392Z,23.64
2022-10-31T13:26:43.588Z,23.23
2022-10-31T13:29:24.707Z,23.40
2022-10-31T13:31:55.697Z,23.15
2022-10-31T13:34:47.911Z,22.94
2022-10-31T13:37:39.505Z,22.55
2022-10-31T13:40:36.681Z,22.21
2022-10-31T13:43:23.289Z,22.15
2022-10-31T13:45:54.824Z,21.72
2022-10-31T13:48:28.703Z,21.75
2022-10-31T13:51:00.885Z,21.78
2022-10-31T13:53:47.033Z,21.73
2022-10-31T13:56:28.089Z,21.39
2022-10-31T13:59:01.997Z,21.27
2022-10-31T14:01:31.916Z,21.23
2022-10-31T14:04:24.709Z,21.03
2022-10-31T14:07:11.229Z,20.86
2022-10-31T14:09:55.758Z,20.82
2022-10-31T14:12:40.876Z,20.72
2022-10-31T14:15:21.518Z,20.26
2022-10-31T14:17:56.599Z,20.19
2022-10-31T14:20:36.378Z,20.18
2022-10-31T14:23:33.945Z,20.10
2022-10-31T14:26:32.333Z,19.71
2022-10-31T14:29:17.184Z,19.74
2022-10-31T14:31:54.213Z,19.74
2022-10-31T14:34:36.219Z,19.68
2022-10-31T14:37:36.205Z,19.30
2022-10-31T14:40:35.204Z,19.33
2022-10-31T14:43:06.541Z,19.32
2022-10-31T14:46:00.323Z,19.23
2022-10-31T14:48:40.684Z,19.13
2022-10-31T14:51:17.687Z,19.08
2022-10-31T14:53:52.379Z,19.00
2022-10-31T14:56:26.209Z,18.63
2022-10-31T14:58:58.074Z,18.57
2022-10-31T15:01:40.803Z,18.55
2022-10-31T15:04:23.626Z,18.47
2022-10-31T15:06:58.950Z,18.37
2022-10-31T15:09:32.713Z,18.33
2022-10-31T15:12:01.894Z,18.24
2022-10-31T15:14:32.218Z,18.11
2022-10-31T15:17:03.996Z,18.03
2022-10-31T15:19:35.301Z,17.99
2022-10-31T15:22:03.289Z,17.91
2022-10-31T15:24:40.067Z,17.66
2022-10-31T15:27:14.431Z,17.68
2022-10-31T15:29:58.374Z,17.60
2022-10-31T15:32:29.565Z,17.50
2022-10-31T15:34:58.351Z,17.40
2022-10-31T15:37:28.032Z,17.27
2022-10-31T15:39:56.000Z,17.17
2022-10-31T15:42:29.606Z,17.18
2022-10-31T15:45:07.215Z,17.02
2022-10-31T15:47:35.861Z,16.83
2022-10-31T15:50:19.465Z,16.78
2022-10-31T15:52:49.761Z,16.72
2022-10-31T15:55:25.319Z,16.62
2022-10-31T15:57:58.768Z,16.36
2022-10-31T16:00:32.640Z,16.35
2022-10-31T16:03:31.119Z,16.21
2022-10-31T16:06:01.650Z,16.13
2022-10-31T16:08:32.458Z,16.05
2022-10-31T16:11:08.015Z,15.78
2022-10-31T16:14:01.484Z,15.85
2022-10-31T16:16:36.410Z,15.78
2022-10-31T16:19:06.542Z,15.69
2022-10-31T16:21:39.393Z,15.58
2022-10-31T16:24:30.564Z,15.16
2022-10-31T16:27:16.569Z,15.14
2022-10-31T16:29:47.003Z,15.08
2022-10-31T16:32:35.191Z,15.10
2022-10-31T16:35:09.451Z,15.02
2022-10-31T16:37:44.301Z,14.84
2022-10-31T16:40:14.376Z,14.77
2022-10-31T16:42:43.935Z,14.69
2022-10-31T16:45:24.219Z,14.53
2022-10-31T16:47:52.997Z,14.32
2022-10-31T16:50:24.326Z,14.39
2022-10-31T16:53:08.749Z,14.43
2022-10-31T16:56:21.956Z,14.36
2022-10-31T16:58:50.063Z,14.31
2022-10-31T17:01:18.045Z,14.24
2022-10-31T17:03:46.101Z,14.18
2022-10-31T17:06:15.309Z,14.14
2022-10-31T17:08:43.471Z,14.01
2022-10-31T17:11:19.076Z,13.94
2022-10-31T17:13:47.249Z,13.85
2022-10-31T17:16:15.757Z,13.85
2022-10-31T17:18:47.805Z,13.78
2022-10-31T17:21:23.458Z,13.69
2022-10-31T17:23:51.767Z,13.60
2022-10-31T17:26:20.828Z,13.60
2022-10-31T17:28:49.277Z,13.54
2022-10-31T17:31:36.887Z,13.51
2022-10-31T17:34:06.554Z,13.57
2022-10-31T17:36:35.494Z,13.59
2022-10-31T17:39:06.056Z,13.51
2022-10-31T17:41:34.006Z,13.44
2022-10-31T17:44:02.072Z,13.48
2022-10-31T17:46:29.996Z,13.34
2022-10-31T17:48:58.224Z,13.16
2022-10-31T17:51:26.126Z,13.16
2022-10-31T17:53:54.398Z,13.18
2022-10-31T17:56:22.279Z,12.95
2022-10-31T17:58:50.392Z,12.84
2022-10-31T18:01:19.801Z,12.90
2022-10-31T18:03:48.051Z,12.84
2022-10-31T18:06:17.429Z,12.76
2022-10-31T18:08:46.054Z,12.62
2022-10-31T18:11:21.636Z,12.61
2022-10-31T18:13:56.680Z,12.53
2022-10-31T18:16:26.657Z,12.48
2022-10-31T18:18:59.736Z,12.29
2022-10-31T18:21:29.526Z,12.29
2022-10-31T18:24:00.608Z,12.21
2022-10-31T18:26:29.430Z,12.19
2022-10-31T18:28:58.572Z,12.21
2022-10-31T18:31:27.072Z,12.18
2022-10-31T18:33:56.990Z,12.13
2022-10-31T18:36:26.223Z,12.14
2022-10-31T18:38:54.980Z,12.17
2022-10-31T18:41:23.193Z,12.16
2022-10-31T18:43:54.159Z,12.09
2022-10-31T18:46:22.774Z,12.07
2022-10-31T18:48:51.630Z,12.08
2022-10-31T18:51:20.188Z,11.98
2022-10-31T18:53:57.372Z,11.88
2022-10-31T18:56:26.672Z,11.72
2022-10-31T18:58:55.092Z,11.77
2022-10-31T19:01:23.813Z,11.68
2022-10-31T19:03:56.745Z,11.33
2022-10-31T19:09:15.714Z,11.42
2022-10-31T19:11:44.917Z,11.46
2022-10-31T19:14:15.303Z,11.39
2022-10-31T19:16:44.039Z,11.25
2022-10-31T19:19:12.399Z,11.20
2022-10-31T19:21:40.954Z,11.29
2022-10-31T19:24:10.827Z,11.29
2022-10-31T19:35:03.536Z,11.14
2022-10-31T19:37:50.494Z,11.10
2022-10-31T19:43:10.492Z,10.85
2022-10-31T19:50:30.494Z,10.82
2022-10-31T19:53:18.335Z,10.63
2022-10-31T19:55:58.813Z,10.59
2022-10-31T20:01:43.587Z,10.61
2022-10-31T20:04:23.130Z,10.59
2022-10-31T20:07:26.971Z,10.54
2022-10-31T20:10:12.902Z,10.51
2022-10-31T20:16:35.613Z,10.43
2022-10-31T20:19:17.856Z,10.44
2022-10-31T20:22:43.391Z,10.31
2022-10-31T20:37:32.419Z,9.85
2022-10-31T20:44:56.818Z,9.84
2022-10-31T20:56:25.544Z,9.59
2022-10-31T20:59:46.418Z,9.63
2022-10-31T21:03:44.460Z,9.61
2022-10-31T21:07:21.543Z,9.59
2022-10-31T21:11:39.820Z,9.53
2022-10-31T21:27:46.635Z,9.11
2022-10-31T21:43:10.788Z,9.13
2022-10-31T21:46:37.381Z,9.11
2022-10-31T21:54:05.491Z,8.54
2022-10-31T22:08:53.625Z,8.55
2022-10-31T23:09:45.745Z,7.68
2022-10-31T23:11:32.885Z,7.71
2022-10-31T23:14:09.557Z,7.69
2022-10-31T23:16:40.500Z,7.66
2022-10-31T23:19:09.701Z,7.56
2022-10-31T23:21:55.384Z,7.44
2022-10-31T23:24:24.745Z,7.26
2022-10-31T23:27:12.267Z,7.08
2022-10-31T23:29:47.768Z,7.05
2022-10-31T23:32:27.760Z,6.89
2022-10-31T23:35:01.073Z,6.96
2022-10-31T23:37:33.848Z,7.09
2022-10-31T23:43:56.321Z,7.24
2022-10-31T23:46:36.248Z,7.38
2022-10-31T23:49:05.788Z,7.42
2022-10-31T23:51:38.351Z,7.46
2022-10-31T23:54:07.619Z,7.54
2022-10-31T23:56:36.175Z,7.53
2022-10-31T23:59:05.133Z,7.60
